createdAt,value
2022-09-22T00:01:18.000Z,102748.53
2022-09-22T00:03:48.982Z,102747.59
2022-09-22T00:06:18.348Z,102736.22
2022-09-22T00:08:48.683Z,102742.38
2022-09-22T00:11:19.246Z,102736.22
2022-09-22T00:13:58.919Z,102730.34
2022-09-22T00:16:34.112Z,102731.50
2022-09-22T00:19:00.542Z,102732.50
2022-09-22T00:21:27.934Z,102725.56
2022-09-22T00:23:54.679Z,102723.94
2022-09-22T00:26:23.074Z,102727.47
2022-09-22T00:28:51.208Z,102729.25
2022-09-22T00:31:23.763Z,102724.03
2022-09-22T00:33:51.678Z,102721.41
2022-09-22T00:36:19.516Z,102713.63
2022-09-22T00:38:50.423Z,102720.75
2022-09-22T00:41:29.450Z,102724.38
2022-09-22T00:44:17.669Z,102723.44
2022-09-22T00:46:47.522Z,102715.59
2022-09-22T00:49:15.194Z,102714.69
2022-09-22T00:51:44.546Z,102708.66
2022-09-22T00:54:15.355Z,102714.69
2022-09-22T00:56:53.328Z,102706.84
2022-09-22T00:59:24.654Z,102704.34
2022-09-22T01:04:26.561Z,102697.78
2022-09-22T01:06:55.179Z,102691.69
2022-09-22T01:09:21.550Z,102695.22
2022-09-22T01:11:47.959Z,102687.38
2022-09-22T01:14:50.336Z,102693.63
2022-09-22T01:17:27.064Z,102690.22
2022-09-22T01:20:09.080Z,102693.84
2022-09-22T01:22:56.536Z,102688.81
2022-09-22T01:25:55.427Z,102697.56
2022-09-22T01:28:55.799Z,102690.75
2022-09-22T01:31:39.168Z,102689.91
2022-09-22T01:34:12.093Z,102696.19
2022-09-22T01:36:47.294Z,102683.34
2022-09-22T01:39:19.697Z,102682.56
2022-09-22T01:42:03.378Z,102686.94
2022-09-22T01:44:43.295Z,102680.94
2022-09-22T01:47:31.182Z,102678.41
2022-09-22T01:50:03.077Z,102681.88
2022-09-22T01:52:33.425Z,102674.03
2022-09-22T01:55:12.521Z,102674.22
2022-09-22T01:57:57.161Z,102676.00
2022-09-22T02:00:24.090Z,102672.59
2022-09-22T02:03:14.536Z,102670.13
2022-09-22T02:06:20.090Z,102667.56
2022-09-22T02:09:01.584Z,102664.16
2022-09-22T02:11:27.932Z,102652.00
2022-09-22T02:13:54.776Z,102657.25
2022-09-22T02:16:23.791Z,102648.47
2022-09-22T02:19:11.940Z,102646.94
2022-09-22T02:21:40.391Z,102644.44
2022-09-22T02:24:07.354Z,102646.13
2022-09-22T02:26:36.275Z,102644.50
2022-09-22T02:29:07.973Z,102632.25
2022-09-22T02:31:38.807Z,102634.81
2022-09-22T02:34:06.951Z,102633.22
2022-09-22T02:36:54.498Z,102630.72
2022-09-22T02:39:39.610Z,102633.41
2022-09-22T02:42:38.497Z,102633.53
2022-09-22T02:45:40.010Z,102630.00
2022-09-22T02:48:13.785Z,102628.13
2022-09-22T02:50:41.383Z,102630.88
2022-09-22T02:53:17.229Z,102617.94
2022-09-22T02:55:44.986Z,102619.75
2022-09-22T02:58:16.320Z,102627.53
2022-09-22T03:00:43.997Z,102618.78
2022-09-22T03:03:13.295Z,102616.16
2022-09-22T03:05:39.914Z,102619.56
2022-09-22T03:08:06.989Z,102614.47
2022-09-22T03:10:34.145Z,102612.84
2022-09-22T03:13:15.924Z,102608.47
2022-09-22T03:15:44.488Z,102623.28
2022-09-22T03:18:10.979Z,102612.91
2022-09-22T03:20:37.419Z,102618.34
2022-09-22T03:23:03.781Z,102602.78
2022-09-22T03:25:30.155Z,102608.00
2022-09-22T03:27:56.468Z,102604.59
2022-09-22T03:30:22.840Z,102618.53
2022-09-22T03:32:49.409Z,102608.22
2022-09-22T03:35:15.922Z,102612.66
2022-09-22T03:37:42.318Z,102605.00
2022-09-22T03:40:08.933Z,102607.63
2022-09-22T03:42:35.677Z,102605.00
2022-09-22T03:45:04.165Z,102611.94
2022-09-22T03:47:30.942Z,102610.31
2022-09-22T03:49:57.378Z,102608.59
2022-09-22T03:52:24.109Z,102605.94
2022-09-22T03:54:52.087Z,102610.31
2022-09-22T03:57:18.423Z,102605.19
2022-09-22T03:59:44.718Z,102604.44
2022-09-22T04:02:11.426Z,102603.59
2022-09-22T04:04:37.780Z,102600.06
2022-09-22T04:07:07.276Z,102603.59
2022-09-22T04:09:34.089Z,102602.78
2022-09-22T04:12:00.863Z,102593.19
2022-09-22T04:14:27.382Z,102591.53
2022-09-22T04:16:54.238Z,102592.47
2022-09-22T04:19:20.702Z,102591.75
2022-09-22T04:21:47.009Z,102583.09
2022-09-22T04:24:13.446Z,102588.31
2022-09-22T04:26:47.789Z,102584.78
2022-09-22T04:29:26.114Z,102583.13
2022-09-22T04:31:52.409Z,102579.78
2022-09-22T04:34:18.830Z,102578.06
2022-09-22T04:36:45.183Z,102587.63
2022-09-22T04:39:11.578Z,102588.50
2022-09-22T04:41:37.882Z,102579.88
2022-09-22T04:44:04.195Z,102582.59
2022-09-22T04:46:30.579Z,102583.47
2022-09-22T04:48:57.098Z,102585.19
2022-09-22T04:51:23.516Z,102581.69
2022-09-22T04:53:49.876Z,102581.75
2022-09-22T04:56:16.216Z,102587.03
2022-09-22T04:58:42.627Z,102585.38
2022-09-22T05:01:08.984Z,102589.75
2022-09-22T05:03:38.139Z,102586.31
2022-09-22T05:06:07.683Z,102585.59
2022-09-22T05:08:34.193Z,102583.97
2022-09-22T05:11:00.564Z,102580.63
2022-09-22T05:13:26.999Z,102585.00
2022-09-22T05:15:53.333Z,102584.06
2022-09-22T05:18:20.639Z,102585.75
2022-09-22T05:20:47.105Z,102592.78
2022-09-22T05:23:13.607Z,102593.72
2022-09-22T05:25:40.275Z,102591.06
2022-09-22T05:28:06.609Z,102587.59
2022-09-22T05:30:33.037Z,102590.19
2022-09-22T05:32:59.725Z,102593.66
2022-09-22T05:35:26.262Z,102597.06
2022-09-22T05:37:53.105Z,102593.53
2022-09-22T05:40:20.270Z,102596.09
2022-09-22T05:42:51.644Z,102592.50
2022-09-22T05:45:19.712Z,102590.69
2022-09-22T05:47:46.515Z,102599.34
2022-09-22T05:50:14.666Z,102595.72
2022-09-22T05:52:41.018Z,102602.66
2022-09-22T05:55:08.449Z,102597.44
2022-09-22T05:57:34.929Z,102598.25
2022-09-22T06:00:01.829Z,102589.47
2022-09-22T06:02:28.285Z,102590.13
2022-09-22T06:04:54.659Z,102589.94
2022-09-22T06:07:22.103Z,102584.59
2022-09-22T06:09:49.024Z,102595.03
2022-09-22T06:12:16.085Z,102600.19
2022-09-22T06:14:42.862Z,102584.25
2022-09-22T06:17:11.847Z,102595.28
2022-09-22T06:19:39.006Z,102589.03
2022-09-22T06:22:05.984Z,102593.19
2022-09-22T06:24:32.355Z,102593.06
2022-09-22T06:26:58.782Z,102591.09
2022-09-22T06:29:26.735Z,102588.22
2022-09-22T06:31:53.104Z,102589.63
2022-09-22T06:34:19.546Z,102585.91
2022-09-22T06:36:45.843Z,102580.31
2022-09-22T06:39:13.065Z,102579.97
2022-09-22T06:41:39.574Z,102584.75
2022-09-22T06:44:06.691Z,102587.00
2022-09-22T06:46:34.069Z,102585.56
2022-09-22T06:49:00.843Z,102588.53
2022-09-22T06:51:29.923Z,102587.94
2022-09-22T06:53:56.651Z,102594.16
2022-09-22T06:56:25.378Z,102582.97
2022-09-22T06:59:09.417Z,102581.44
2022-09-22T07:01:37.068Z,102573.53
2022-09-22T07:04:04.525Z,102580.69
2022-09-22T07:06:30.892Z,102572.88
2022-09-22T07:08:57.310Z,102578.72
2022-09-22T07:11:23.791Z,102581.16
2022-09-22T07:13:53.218Z,102574.66
2022-09-22T07:16:22.019Z,102576.75
2022-09-22T07:18:51.126Z,102586.47
2022-09-22T07:21:27.382Z,102574.81
2022-09-22T07:23:55.619Z,102571.75
2022-09-22T07:26:28.746Z,102567.31
2022-09-22T07:28:58.358Z,102567.41
2022-09-22T07:31:30.507Z,102558.66
2022-09-22T07:34:00.119Z,102559.69
2022-09-22T07:36:29.157Z,102556.06
2022-09-22T07:38:57.546Z,102559.25
2022-09-22T07:41:29.190Z,102554.16
2022-09-22T07:44:19.032Z,102549.34
2022-09-22T07:46:45.875Z,102539.78
2022-09-22T07:49:12.392Z,102543.44
2022-09-22T07:51:38.740Z,102543.06
2022-09-22T07:54:07.928Z,102542.94
2022-09-22T07:56:35.769Z,102531.75
2022-09-22T07:59:05.135Z,102531.41
2022-09-22T08:01:34.598Z,102522.34
2022-09-22T08:04:01.464Z,102521.16
2022-09-22T08:06:28.754Z,102522.00
2022-09-22T08:08:57.450Z,102515.81
2022-09-22T08:11:26.810Z,102520.09
2022-09-22T08:14:04.956Z,102522.41
2022-09-22T08:16:36.522Z,102521.91
2022-09-22T08:19:10.399Z,102524.72
2022-09-22T08:21:40.759Z,102517.84
2022-09-22T08:24:16.085Z,102517.31
2022-09-22T08:26:48.142Z,102517.75
2022-09-22T08:29:14.751Z,102512.03
2022-09-22T08:31:42.197Z,102512.97
2022-09-22T08:34:09.323Z,102509.75
2022-09-22T08:36:37.111Z,102508.84
2022-09-22T08:39:05.019Z,102518.38
2022-09-22T08:41:42.879Z,102519.56
2022-09-22T08:44:11.871Z,102511.94
2022-09-22T08:46:44.092Z,102511.16
2022-09-22T08:49:32.245Z,102505.63
2022-09-22T08:52:07.565Z,102510.69
2022-09-22T08:54:35.232Z,102508.63
2022-09-22T08:57:21.378Z,102523.47
2022-09-22T08:59:54.547Z,102503.63
2022-09-22T09:02:35.909Z,102502.94
2022-09-22T09:05:05.023Z,102501.91
2022-09-22T09:07:37.127Z,102497.78
2022-09-22T09:10:19.569Z,102498.56
2022-09-22T09:13:04.258Z,102500.03
2022-09-22T09:15:47.278Z,102499.19
2022-09-22T09:18:16.517Z,102493.66
2022-09-22T09:20:48.415Z,102499.44
2022-09-22T09:23:18.854Z,102498.94
2022-09-22T09:25:49.619Z,102495.53
2022-09-22T09:28:27.848Z,102493.78
2022-09-22T09:30:59.400Z,102497.69
2022-09-22T09:33:47.354Z,102497.88
2022-09-22T09:36:22.746Z,102491.03
2022-09-22T09:38:54.689Z,102498.97
2022-09-22T09:41:23.822Z,102494.28
2022-09-22T09:43:53.293Z,102493.19
2022-09-22T09:46:32.906Z,102496.13
2022-09-22T09:49:11.093Z,102491.13
2022-09-22T09:51:42.725Z,102492.88
2022-09-22T09:54:16.674Z,102489.47
2022-09-22T09:57:12.886Z,102495.97
2022-09-22T10:00:00.429Z,102493.91
2022-09-22T10:02:29.641Z,102492.72
2022-09-22T10:04:59.989Z,102488.53
2022-09-22T10:10:31.988Z,102479.06
2022-09-22T10:13:04.179Z,102481.66
2022-09-22T10:15:33.431Z,102490.41
2022-09-22T10:17:59.951Z,102480.19
2022-09-22T10:20:33.941Z,102477.00
2022-09-22T10:23:21.645Z,102480.59
2022-09-22T10:25:50.859Z,102471.91
2022-09-22T10:28:19.742Z,102473.97
2022-09-22T10:31:02.390Z,102473.16
2022-09-22T10:33:29.146Z,102471.38
2022-09-22T10:36:07.858Z,102463.97
2022-09-22T10:38:43.186Z,102461.00
2022-09-22T10:41:17.740Z,102450.25
2022-09-22T10:43:50.845Z,102442.13
2022-09-22T10:46:34.628Z,102441.78
2022-09-22T10:49:08.911Z,102449.81
2022-09-22T10:51:55.440Z,102442.38
2022-09-22T10:54:46.575Z,102435.88
2022-09-22T10:57:34.202Z,102442.16
2022-09-22T11:00:19.203Z,102424.78
2022-09-22T11:03:06.232Z,102421.09
2022-09-22T11:06:25.709Z,102420.38
2022-09-22T11:09:38.926Z,102431.47
2022-09-22T11:12:20.407Z,102415.63
2022-09-22T11:15:02.147Z,102418.59
2022-09-22T11:17:56.177Z,102408.56
2022-09-22T11:20:36.687Z,102412.22
2022-09-22T11:23:09.248Z,102411.66
2022-09-22T11:26:13.914Z,102415.56
2022-09-22T11:29:07.218Z,102401.78
2022-09-22T11:31:54.853Z,102413.53
2022-09-22T11:34:33.329Z,102414.16
2022-09-22T11:37:25.792Z,102409.53
2022-09-22T11:40:17.224Z,102392.06
2022-09-22T11:43:21.682Z,102398.13
2022-09-22T11:46:06.682Z,102396.84
2022-09-22T11:48:52.326Z,102388.81
2022-09-22T11:51:36.926Z,102378.88
2022-09-22T11:54:21.857Z,102373.53
2022-09-22T11:57:09.319Z,102376.44
2022-09-22T11:59:46.528Z,102377.25
2022-09-22T12:02:37.671Z,102367.59
2022-09-22T12:05:12.636Z,102370.19
2022-09-22T12:07:54.067Z,102363.91
2022-09-22T12:10:35.040Z,102362.31
2022-09-22T12:13:11.248Z,102358.94
2022-09-22T12:16:12.520Z,102352.47
2022-09-22T12:18:58.669Z,102338.78
2022-09-22T12:21:49.823Z,102335.66
2022-09-22T12:24:16.296Z,102324.00
2022-09-22T12:26:46.164Z,102332.63
2022-09-22T12:29:15.333Z,102328.84
2022-09-22T12:31:43.714Z,102327.03
2022-09-22T12:34:22.610Z,102321.28
2022-09-22T12:36:53.242Z,102323.22
2022-09-22T12:39:28.854Z,102336.69
2022-09-22T12:42:01.457Z,102332.97
2022-09-22T12:44:44.423Z,102334.72
2022-09-22T12:47:25.963Z,102323.81
2022-09-22T12:49:56.883Z,102316.50
2022-09-22T12:52:39.445Z,102317.38
2022-09-22T12:55:19.400Z,102306.13
2022-09-22T12:57:50.720Z,102314.28
2022-09-22T13:00:36.199Z,102311.25
2022-09-22T13:03:24.573Z,102311.78
2022-09-22T13:05:55.496Z,102313.31
2022-09-22T13:08:25.263Z,102304.34
2022-09-22T13:11:00.673Z,102300.78
2022-09-22T13:13:40.647Z,102300.09
2022-09-22T13:16:15.889Z,102300.03
2022-09-22T13:18:51.986Z,102288.28
2022-09-22T13:21:26.920Z,102293.56
2022-09-22T13:24:00.136Z,102291.59
2022-09-22T13:26:38.226Z,102282.31
2022-09-22T13:29:15.580Z,102280.63
2022-09-22T13:31:51.106Z,102279.63
2022-09-22T13:34:22.753Z,102282.84
2022-09-22T13:36:51.831Z,102276.22
2022-09-22T13:39:21.015Z,102284.59
2022-09-22T13:41:52.323Z,102283.66
2022-09-22T13:44:25.062Z,102270.44
2022-09-22T13:46:52.647Z,102264.75
2022-09-22T13:49:44.660Z,102265.25
2022-09-22T13:52:19.071Z,102266.78
2022-09-22T13:54:50.105Z,102269.47
2022-09-22T13:57:23.815Z,102260.97
2022-09-22T13:59:52.345Z,102256.91
2022-09-22T14:02:29.390Z,102258.00
2022-09-22T14:05:02.468Z,102255.16
2022-09-22T14:07:32.281Z,102255.72
2022-09-22T14:10:01.429Z,102245.31
2022-09-22T14:12:29.122Z,102247.59
2022-09-22T14:14:55.623Z,102241.97
2022-09-22T14:17:26.231Z,102245.22
2022-09-22T14:20:08.598Z,102239.97
2022-09-22T14:22:42.495Z,102238.50
2022-09-22T14:25:21.901Z,102231.34
2022-09-22T14:27:58.640Z,102235.84
2022-09-22T14:30:28.914Z,102236.06
2022-09-22T14:33:01.527Z,102232.19
2022-09-22T14:35:31.667Z,102234.81
2022-09-22T14:38:13.826Z,102229.31
2022-09-22T14:40:54.063Z,102224.91
2022-09-22T14:43:27.465Z,102224.91
2022-09-22T14:45:58.472Z,102219.78
2022-09-22T14:48:34.435Z,102225.56
2022-09-22T14:51:08.678Z,102216.50
2022-09-22T14:53:45.745Z,102217.16
2022-09-22T14:56:27.234Z,102215.56
2022-09-22T14:58:56.862Z,102215.00
2022-09-22T15:01:48.781Z,102212.41
2022-09-22T15:04:26.311Z,102214.47
2022-09-22T15:06:58.818Z,102203.13
2022-09-22T15:09:32.220Z,102211.63
2022-09-22T15:12:01.789Z,102200.03
2022-09-22T15:14:33.908Z,102201.56
2022-09-22T15:17:53.876Z,102193.44
2022-09-22T15:20:31.923Z,102188.72
2022-09-22T15:22:58.495Z,102194.59
2022-09-22T15:25:24.842Z,102191.75
2022-09-22T15:27:53.174Z,102192.91
2022-09-22T15:30:21.878Z,102187.34
2022-09-22T15:32:48.813Z,102191.25
2022-09-22T15:35:17.645Z,102191.88
2022-09-22T15:37:45.855Z,102190.78
2022-09-22T15:40:21.326Z,102193.94
2022-09-22T15:43:09.083Z,102195.22
2022-09-22T15:45:37.165Z,102182.69
2022-09-22T15:48:03.704Z,102184.53
2022-09-22T15:50:30.650Z,102195.66
2022-09-22T15:52:56.992Z,102186.31
2022-09-22T15:55:24.842Z,102188.47
2022-09-22T15:57:55.193Z,102185.38
2022-09-22T16:00:27.060Z,102176.06
2022-09-22T16:02:54.560Z,102176.38
2022-09-22T16:05:21.052Z,102183.31
2022-09-22T16:07:51.410Z,102173.81
2022-09-22T16:10:20.840Z,102172.63
2022-09-22T16:12:47.432Z,102179.91
2022-09-22T16:15:14.234Z,102168.66
2022-09-22T16:17:42.851Z,102183.28
2022-09-22T16:20:14.804Z,102164.50
2022-09-22T16:22:43.515Z,102170.44
2022-09-22T16:25:11.187Z,102154.97
2022-09-22T16:27:38.272Z,102163.41
2022-09-22T16:30:05.446Z,102161.75
2022-09-22T16:32:36.156Z,102160.09
2022-09-22T16:35:03.668Z,102165.44
2022-09-22T16:37:30.183Z,102161.09
2022-09-22T16:39:56.560Z,102151.44
2022-09-22T16:42:23.829Z,102156.75
2022-09-22T16:44:50.586Z,102169.31
2022-09-22T16:47:22.867Z,102159.75
2022-09-22T16:49:51.161Z,102159.81
2022-09-22T16:52:18.962Z,102167.97
2022-09-22T16:54:46.152Z,102158.94
2022-09-22T16:57:12.851Z,102161.44
2022-09-22T16:59:39.207Z,102162.28
2022-09-22T17:02:05.694Z,102167.47
2022-09-22T17:04:32.393Z,102162.59
2022-09-22T17:06:58.765Z,102163.00
2022-09-22T17:09:25.108Z,102160.63
2022-09-22T17:11:52.525Z,102166.22
2022-09-22T17:14:21.403Z,102153.50
2022-09-22T17:16:51.731Z,102162.50
2022-09-22T17:19:23.311Z,102154.69
2022-09-22T17:21:52.695Z,102160.97
2022-09-22T17:24:19.376Z,102158.31
2022-09-22T17:26:54.328Z,102153.13
2022-09-22T17:29:27.149Z,102150.34
2022-09-22T17:31:57.172Z,102152.00
2022-09-22T17:34:25.429Z,102155.59
2022-09-22T17:36:55.214Z,102149.53
2022-09-22T17:39:23.294Z,102154.78
2022-09-22T17:41:50.334Z,102151.88
2022-09-22T17:44:21.012Z,102148.25
2022-09-22T17:47:07.834Z,102143.72
2022-09-22T17:49:52.566Z,102142.94
2022-09-22T17:52:37.437Z,102152.72
2022-09-22T17:55:11.666Z,102152.75
2022-09-22T17:57:40.126Z,102149.81
2022-09-22T18:00:15.451Z,102152.19
2022-09-22T18:02:41.848Z,102156.44
2022-09-22T18:05:11.031Z,102146.28
2022-09-22T18:07:40.118Z,102155.28
2022-09-22T18:10:08.365Z,102154.16
2022-09-22T18:12:35.491Z,102148.66
2022-09-22T18:15:03.735Z,102159.03
2022-09-22T18:17:41.733Z,102156.16
2022-09-22T18:20:17.945Z,102152.38
2022-09-22T18:22:47.673Z,102155.13
2022-09-22T18:25:15.258Z,102156.38
2022-09-22T18:27:42.215Z,102155.31
2022-09-22T18:30:13.079Z,102153.31
2022-09-22T18:32:41.743Z,102147.50
2022-09-22T18:35:08.154Z,102151.47
2022-09-22T18:37:34.533Z,102151.13
2022-09-22T18:40:01.055Z,102152.28
2022-09-22T18:42:27.634Z,102146.25
2022-09-22T18:44:53.976Z,102160.59
2022-09-22T18:47:22.915Z,102155.53
2022-09-22T18:49:51.206Z,102151.22
2022-09-22T18:52:24.395Z,102153.09
2022-09-22T18:54:53.689Z,102153.41
2022-09-22T18:57:21.623Z,102155.38
2022-09-22T18:59:50.855Z,102156.75
2022-09-22T19:02:21.326Z,102159.66
2022-09-22T19:04:48.518Z,102153.78
2022-09-22T19:07:35.593Z,102155.63
2022-09-22T19:10:04.364Z,102165.66
2022-09-22T19:12:36.955Z,102162.34
2022-09-22T19:15:03.767Z,102160.84
2022-09-22T19:17:30.287Z,102161.91
2022-09-22T19:19:56.603Z,102157.78
2022-09-22T19:22:23.143Z,102161.28
2022-09-22T19:24:50.724Z,102165.69
2022-09-22T19:27:19.046Z,102160.63
2022-09-22T19:29:45.358Z,102172.22
2022-09-22T19:32:11.885Z,102161.00
2022-09-22T19:34:38.547Z,102160.28
2022-09-22T19:37:06.130Z,102166.47
2022-09-22T19:39:32.633Z,102160.38
2022-09-22T19:41:59.975Z,102159.50
2022-09-22T19:44:27.102Z,102161.22
2022-09-22T19:46:53.691Z,102157.81
2022-09-22T19:49:19.998Z,102150.84
2022-09-22T19:51:46.336Z,102151.69
2022-09-22T19:54:12.696Z,102147.28
2022-09-22T19:56:39.177Z,102151.69
2022-09-22T19:59:07.309Z,102147.28
2022-09-22T20:01:40.181Z,102145.59
2022-09-22T20:04:12.355Z,102144.84
2022-09-22T20:06:39.072Z,102144.09
2022-09-22T20:09:05.384Z,102142.38
2022-09-22T20:11:34.438Z,102135.63
2022-09-22T20:14:19.332Z,102135.63
2022-09-22T20:16:56.606Z,102140.06
2022-09-22T20:19:25.372Z,102132.44
2022-09-22T20:21:53.918Z,102128.31
2022-09-22T20:24:21.968Z,102127.56
2022-09-22T20:26:48.348Z,102129.47
2022-09-22T20:29:16.589Z,102128.78
2022-09-22T20:31:43.488Z,102127.09
2022-09-22T20:34:15.027Z,102127.22
2022-09-22T20:36:43.130Z,102122.03
2022-09-22T20:39:15.447Z,102115.25
2022-09-22T20:41:43.280Z,102119.03
2022-09-22T20:44:14.449Z,102115.00
2022-09-22T20:46:42.475Z,102119.50
2022-09-22T20:49:12.774Z,102112.66
2022-09-22T20:51:39.772Z,102118.94
2022-09-22T20:54:07.220Z,102113.88
2022-09-22T20:56:34.105Z,102107.94
2022-09-22T20:59:01.961Z,102114.25
2022-09-22T21:01:28.474Z,102107.47
2022-09-22T21:03:55.548Z,102112.94
2022-09-22T21:06:22.522Z,102105.22
2022-09-22T21:09:07.481Z,102106.16
2022-09-22T21:11:34.219Z,102102.97
2022-09-22T21:14:03.803Z,102101.47
2022-09-22T21:16:30.844Z,102094.53
2022-09-22T21:19:01.968Z,102092.00
2022-09-22T21:21:31.077Z,102094.69
2022-09-22T21:23:58.458Z,102098.47
2022-09-22T21:26:24.827Z,102083.78
2022-09-22T21:28:52.113Z,102090.94
2022-09-22T21:31:19.719Z,102090.38
2022-09-22T21:33:47.195Z,102091.38
2022-09-22T21:36:16.452Z,102089.66
2022-09-22T21:38:44.739Z,102082.81
2022-09-22T21:41:15.872Z,102088.28
2022-09-22T21:43:42.572Z,102081.38
2022-09-22T21:46:12.712Z,102086.00
2022-09-22T21:48:39.540Z,102076.50
2022-09-22T21:51:11.679Z,102071.59
2022-09-22T21:53:39.343Z,102065.69
2022-09-22T21:56:10.500Z,102058.75
2022-09-22T21:58:38.665Z,102057.81
2022-09-22T22:01:25.257Z,102053.66
2022-09-22T22:03:53.406Z,102057.41
2022-09-22T22:06:21.006Z,102057.59
2022-09-22T22:08:51.126Z,102063.03
2022-09-22T22:11:22.362Z,102057.84
2022-09-22T22:13:52.089Z,102058.78
2022-09-22T22:16:21.540Z,102060.56
2022-09-22T22:18:48.189Z,102056.47
2022-09-22T22:21:18.525Z,102053.06
2022-09-22T22:23:49.814Z,102062.06
2022-09-22T22:26:22.745Z,102052.50
2022-09-22T22:28:50.839Z,102050.78
2022-09-22T22:31:21.112Z,102057.81
2022-09-22T22:33:47.786Z,102042.25
2022-09-22T22:36:16.469Z,102041.41
2022-09-22T22:38:47.095Z,102042.41
2022-09-22T22:41:15.963Z,102038.19
2022-09-22T22:43:43.825Z,102032.94
2022-09-22T22:46:12.016Z,102034.81
2022-09-22T22:48:38.587Z,102032.25
2022-09-22T22:51:16.031Z,102033.13
2022-09-22T22:53:43.463Z,102030.50
2022-09-22T22:56:13.978Z,102031.41
2022-09-22T22:58:40.277Z,102024.66
2022-09-22T23:01:15.948Z,102028.22
2022-09-22T23:03:48.007Z,102021.25
2022-09-22T23:06:17.140Z,102017.88
2022-09-22T23:08:44.219Z,102012.63
2022-09-22T23:11:12.899Z,102010.09
2022-09-22T23:13:45.051Z,102003.25
2022-09-22T23:16:13.905Z,102006.13
2022-09-22T23:18:43.206Z,102004.50
2022-09-22T23:21:12.447Z,102001.97
2022-09-22T23:23:40.162Z,102002.06
2022-09-22T23:26:07.414Z,101997.75
2022-09-22T23:28:35.851Z,101990.81
2022-09-22T23:31:09.283Z,101999.53
2022-09-22T23:33:37.202Z,101994.38
2022-09-22T23:36:05.519Z,101991.16
2022-09-22T23:38:33.167Z,101993.03
2022-09-22T23:40:59.981Z,101990.50
2022-09-22T23:43:27.963Z,101988.72
2022-09-22T23:45:55.155Z,102000.16
2022-09-22T23:48:23.478Z,101995.84
2022-09-22T23:50:52.509Z,101988.91
2022-09-22T23:53:21.154Z,101997.44
2022-09-22T23:55:47.511Z,101987.75
2022-09-22T23:58:16.830Z,101993.03
